sensor_id;sensor_type;location;lat;lon;timestamp;pressure;altitude;pressure_sealevel;temperature;humidity
38225;BME280;24025;48.138;11.428;2023-04-26T00:00:04;95457.22;;;5.65;95.25
38225;BME280;24025;48.138;11.428;2023-04-26T00:02:39;95450.19;;;5.69;94.95
38225;BME280;24025;48.138;11.428;2023-04-26T00:05:11;95446.97;;;5.63;94.80
38225;BME280;24025;48.138;11.428;2023-04-26T00:07:44;95452.94;;;5.73;95.08
38225;BME280;24025;48.138;11.428;2023-04-26T00:10:16;95441.69;;;5.76;95.40
38225;BME280;24025;48.138;11.428;2023-04-26T00:12:48;95441.34;;;5.77;94.88
38225;BME280;24025;48.138;11.428;2023-04-26T00:15:20;95445.34;;;5.83;94.93
38225;BME280;24025;48.138;11.428;2023-04-26T00:17:52;95442.44;;;5.88;95.37
38225;BME280;24025;48.138;11.428;2023-04-26T00:20:23;95439.44;;;5.90;94.56
38225;BME280;24025;48.138;11.428;2023-04-26T00:22:55;95445.75;;;5.97;93.84
38225;BME280;24025;48.138;11.428;2023-04-26T00:25:26;95443.88;;;5.98;93.04
38225;BME280;24025;48.138;11.428;2023-04-26T00:27:58;95439.78;;;6.01;93.57
38225;BME280;24025;48.138;11.428;2023-04-26T00:30:30;95445.22;;;5.80;92.33
38225;BME280;24025;48.138;11.428;2023-04-26T00:33:01;95457.00;;;5.70;93.14
38225;BME280;24025;48.138;11.428;2023-04-26T00:35:33;95445.00;;;5.85;93.67
38225;BME280;24025;48.138;11.428;2023-04-26T00:38:04;95449.94;;;5.86;93.39
38225;BME280;24025;48.138;11.428;2023-04-26T00:40:36;95446.53;;;5.74;92.28
38225;BME280;24025;48.138;11.428;2023-04-26T00:43:08;95445.63;;;5.82;92.79
38225;BME280;24025;48.138;11.428;2023-04-26T00:45:39;95442.69;;;5.83;91.43
38225;BME280;24025;48.138;11.428;2023-04-26T00:48:11;95448.09;;;5.75;88.90
38225;BME280;24025;48.138;11.428;2023-04-26T00:50:43;95442.56;;;5.80;89.98
38225;BME280;24025;48.138;11.428;2023-04-26T00:53:15;95449.19;;;5.61;89.68
38225;BME280;24025;48.138;11.428;2023-04-26T00:55:48;95447.66;;;5.60;90.80
38225;BME280;24025;48.138;11.428;2023-04-26T00:58:21;95449.19;;;5.61;91.71
38225;BME280;24025;48.138;11.428;2023-04-26T01:00:53;95448.53;;;5.52;92.51
38225;BME280;24025;48.138;11.428;2023-04-26T01:03:25;95455.59;;;5.60;93.56
38225;BME280;24025;48.138;11.428;2023-04-26T01:05:57;95457.25;;;5.53;94.18
38225;BME280;24025;48.138;11.428;2023-04-26T01:08:28;95461.97;;;5.59;94.24
38225;BME280;24025;48.138;11.428;2023-04-26T01:11:00;95457.03;;;5.58;94.54
38225;BME280;24025;48.138;11.428;2023-04-26T01:13:32;95461.75;;;5.52;94.87
38225;BME280;24025;48.138;11.428;2023-04-26T01:16:06;95462.53;;;5.53;95.60
38225;BME280;24025;48.138;11.428;2023-04-26T01:18:38;95455.59;;;5.60;95.86
38225;BME280;24025;48.138;11.428;2023-04-26T01:21:09;95457.56;;;5.63;95.37
38225;BME280;24025;48.138;11.428;2023-04-26T01:23:41;95461.44;;;5.66;95.30
38225;BME280;24025;48.138;11.428;2023-04-26T01:26:13;95452.84;;;5.57;95.24
38225;BME280;24025;48.138;11.428;2023-04-26T01:28:44;95457.25;;;5.53;95.18
38225;BME280;24025;48.138;11.428;2023-04-26T01:31:17;95469.34;;;5.54;95.05
38225;BME280;24025;48.138;11.428;2023-04-26T01:33:48;95463.06;;;5.46;94.36
38225;BME280;24025;48.138;11.428;2023-04-26T01:36:20;95463.84;;;5.34;93.64
38225;BME280;24025;48.138;11.428;2023-04-26T01:38:51;95459.53;;;5.30;93.11
38225;BME280;24025;48.138;11.428;2023-04-26T01:41:23;95458.56;;;5.22;93.24
38225;BME280;24025;48.138;11.428;2023-04-26T01:43:54;95468.03;;;5.23;93.23
38225;BME280;24025;48.138;11.428;2023-04-26T01:46:26;95473.75;;;5.25;93.58
38225;BME280;24025;48.138;11.428;2023-04-26T01:48:58;95469.00;;;5.19;93.12
38225;BME280;24025;48.138;11.428;2023-04-26T01:51:29;95474.19;;;5.15;92.26
38225;BME280;24025;48.138;11.428;2023-04-26T01:54:01;95478.03;;;5.18;92.54
38225;BME280;24025;48.138;11.428;2023-04-26T01:56:33;95475.38;;;5.05;92.25
38225;BME280;24025;48.138;11.428;2023-04-26T01:59:05;95475.28;;;5.14;92.65
38225;BME280;24025;48.138;11.428;2023-04-26T02:01:36;95474.97;;;5.16;92.75
38225;BME280;24025;48.138;11.428;2023-04-26T02:04:08;95473.75;;;5.25;93.09
38225;BME280;24025;48.138;11.428;2023-04-26T02:06:40;95474.63;;;5.29;92.72
38225;BME280;24025;48.138;11.428;2023-04-26T02:09:12;95471.69;;;5.31;92.38
38225;BME280;24025;48.138;11.428;2023-04-26T02:11:44;95471.00;;;5.34;92.49
38225;BME280;24025;48.138;11.428;2023-04-26T02:14:15;95467.69;;;5.37;92.34
38225;BME280;24025;48.138;11.428;2023-04-26T02:16:47;95469.69;;;5.40;92.17
38225;BME280;24025;48.138;11.428;2023-04-26T02:19:19;95461.00;;;5.39;91.97
38225;BME280;24025;48.138;11.428;2023-04-26T02:24:23;95461.59;;;5.12;91.14
38225;BME280;24025;48.138;11.428;2023-04-26T02:26:55;95468.84;;;5.03;92.22
38225;BME280;24025;48.138;11.428;2023-04-26T02:29:30;95466.69;;;5.05;92.18
38225;BME280;24025;48.138;11.428;2023-04-26T02:32:14;95464.56;;;4.86;92.71
38225;BME280;24025;48.138;11.428;2023-04-26T02:34:46;95465.44;;;4.90;93.00
38225;BME280;24025;48.138;11.428;2023-04-26T02:37:17;95468.19;;;4.94;92.57
38225;BME280;24025;48.138;11.428;2023-04-26T02:39:52;95458.81;;;4.84;91.91
38225;BME280;24025;48.138;11.428;2023-04-26T02:42:24;95463.91;;;4.89;92.08
38225;BME280;24025;48.138;11.428;2023-04-26T02:44:55;95467.38;;;4.81;92.22
38225;BME280;24025;48.138;11.428;2023-04-26T02:47:27;95463.53;;;4.78;92.35
38225;BME280;24025;48.138;11.428;2023-04-26T02:49:58;95467.72;;;4.79;92.99
38225;BME280;24025;48.138;11.428;2023-04-26T02:52:30;95466.63;;;4.80;91.66
38225;BME280;24025;48.138;11.428;2023-04-26T02:55:02;95465.50;;;4.81;92.34
38225;BME280;24025;48.138;11.428;2023-04-26T02:57:34;95462.34;;;4.88;92.69
38225;BME280;24025;48.138;11.428;2023-04-26T03:00:06;95460.25;;;4.94;93.03
38225;BME280;24025;48.138;11.428;2023-04-26T03:02:38;95454.44;;;5.00;92.51
38225;BME280;24025;48.138;11.428;2023-04-26T03:05:10;95460.72;;;4.96;92.00
38225;BME280;24025;48.138;11.428;2023-04-26T03:07:41;95469.75;;;4.95;91.89
38225;BME280;24025;48.138;11.428;2023-04-26T03:10:13;95465.91;;;5.04;93.01
38225;BME280;24025;48.138;11.428;2023-04-26T03:12:45;95460.25;;;4.94;91.79
38225;BME280;24025;48.138;11.428;2023-04-26T03:15:16;95465.00;;;5.00;92.45
38225;BME280;24025;48.138;11.428;2023-04-26T03:17:48;95459.53;;;5.05;92.28
38225;BME280;24025;48.138;11.428;2023-04-26T03:20:23;95464.66;;;4.90;91.27
38225;BME280;24025;48.138;11.428;2023-04-26T03:22:55;95465.34;;;4.99;92.35
38225;BME280;24025;48.138;11.428;2023-04-26T03:25:26;95462.25;;;4.97;91.58
38225;BME280;24025;48.138;11.428;2023-04-26T03:27:58;95452.69;;;5.04;91.83
38225;BME280;24025;48.138;11.428;2023-04-26T03:30:30;95457.00;;;5.09;91.60
38225;BME280;24025;48.138;11.428;2023-04-26T03:33:01;95454.69;;;5.07;91.61
38225;BME280;24025;48.138;11.428;2023-04-26T03:35:33;95459.63;;;4.97;91.07
38225;BME280;24025;48.138;11.428;2023-04-26T03:38:04;95470.19;;;5.09;91.63
38225;BME280;24025;48.138;11.428;2023-04-26T03:40:36;95475.72;;;5.16;92.01
38225;BME280;24025;48.138;11.428;2023-04-26T03:43:07;95474.72;;;5.21;91.88
38225;BME280;24025;48.138;11.428;2023-04-26T03:45:39;95473.63;;;5.09;90.90
38225;BME280;24025;48.138;11.428;2023-04-26T03:48:11;95479.22;;;4.96;91.69
38225;BME280;24025;48.138;11.428;2023-04-26T03:50:42;95480.06;;;4.88;92.71
38225;BME280;24025;48.138;11.428;2023-04-26T03:53:15;95480.31;;;4.95;93.30
38225;BME280;24025;48.138;11.428;2023-04-26T03:55:47;95472.94;;;5.00;93.22
38225;BME280;24025;48.138;11.428;2023-04-26T03:58:19;95476.69;;;4.99;92.75
38225;BME280;24025;48.138;11.428;2023-04-26T04:00:50;95473.94;;;4.96;93.19
38225;BME280;24025;48.138;11.428;2023-04-26T04:03:22;95475.91;;;4.99;92.62
38225;BME280;24025;48.138;11.428;2023-04-26T04:05:54;95479.31;;;4.99;93.27
38225;BME280;24025;48.138;11.428;2023-04-26T04:08:25;95481.72;;;4.92;93.01
38225;BME280;24025;48.138;11.428;2023-04-26T04:10:58;95478.63;;;4.90;92.84
38225;BME280;24025;48.138;11.428;2023-04-26T04:13:29;95486.91;;;4.89;93.01
38225;BME280;24025;48.138;11.428;2023-04-26T04:16:01;95479.09;;;4.92;92.64
38225;BME280;24025;48.138;11.428;2023-04-26T04:18:32;95476.44;;;4.92;92.50
38225;BME280;24025;48.138;11.428;2023-04-26T04:21:04;95484.16;;;4.97;92.66
38225;BME280;24025;48.138;11.428;2023-04-26T04:23:35;95487.59;;;4.98;92.73
38225;BME280;24025;48.138;11.428;2023-04-26T04:26:07;95491.28;;;4.84;92.51
38225;BME280;24025;48.138;11.428;2023-04-26T04:28:39;95492.38;;;4.83;93.03
38225;BME280;24025;48.138;11.428;2023-04-26T04:31:12;95491.50;;;4.79;93.52
38225;BME280;24025;48.138;11.428;2023-04-26T04:33:43;95489.63;;;4.80;93.71
38225;BME280;24025;48.138;11.428;2023-04-26T04:36:15;95497.31;;;4.85;94.23
38225;BME280;24025;48.138;11.428;2023-04-26T04:38:47;95498.66;;;4.79;93.98
38225;BME280;24025;48.138;11.428;2023-04-26T04:41:18;95516.59;;;4.86;94.30
38225;BME280;24025;48.138;11.428;2023-04-26T04:43:52;95508.13;;;4.92;93.62
38225;BME280;24025;48.138;11.428;2023-04-26T04:46:24;95511.56;;;4.93;94.07
38225;BME280;24025;48.138;11.428;2023-04-26T04:48:55;95512.13;;;4.98;93.82
38225;BME280;24025;48.138;11.428;2023-04-26T04:51:27;95514.03;;;5.10;93.60
38225;BME280;24025;48.138;11.428;2023-04-26T04:53:58;95516.81;;;5.14;93.02
38225;BME280;24025;48.138;11.428;2023-04-26T04:56:30;95518.25;;;5.23;92.66
38225;BME280;24025;48.138;11.428;2023-04-26T04:59:01;95520.03;;;5.31;92.58
38225;BME280;24025;48.138;11.428;2023-04-26T05:01:34;95530.47;;;5.28;91.70
38225;BME280;24025;48.138;11.428;2023-04-26T05:04:07;95532.00;;;5.29;92.70
38225;BME280;24025;48.138;11.428;2023-04-26T05:06:39;95536.44;;;5.37;92.85
38225;BME280;24025;48.138;11.428;2023-04-26T05:09:12;95532.78;;;5.29;91.90
38225;BME280;24025;48.138;11.428;2023-04-26T05:11:43;95535.00;;;5.27;92.15
38225;BME280;24025;48.138;11.428;2023-04-26T05:14:15;95536.53;;;5.28;92.59
38225;BME280;24025;48.138;11.428;2023-04-26T05:16:47;95535.56;;;5.33;91.30
38225;BME280;24025;48.138;11.428;2023-04-26T05:19:19;95530.97;;;5.09;91.12
38225;BME280;24025;48.138;11.428;2023-04-26T05:21:51;95526.38;;;5.18;91.43
38225;BME280;24025;48.138;11.428;2023-04-26T05:24:23;95533.78;;;5.25;91.59
38225;BME280;24025;48.138;11.428;2023-04-26T05:26:55;95529.59;;;5.36;91.06
38225;BME280;24025;48.138;11.428;2023-04-26T05:29:29;95531.06;;;5.46;90.23
38225;BME280;24025;48.138;11.428;2023-04-26T05:32:01;95539.41;;;5.35;89.49
38225;BME280;24025;48.138;11.428;2023-04-26T05:34:33;95537.31;;;5.29;89.94
38225;BME280;24025;48.138;11.428;2023-04-26T05:37:05;95537.78;;;5.31;90.56
38225;BME280;24025;48.138;11.428;2023-04-26T05:39:37;95539.00;;;5.46;91.00
38225;BME280;24025;48.138;11.428;2023-04-26T05:42:08;95534.59;;;5.62;91.03
38225;BME280;24025;48.138;11.428;2023-04-26T05:44:40;95540.34;;;5.76;90.82
38225;BME280;24025;48.138;11.428;2023-04-26T05:47:11;95534.94;;;5.85;89.92
38225;BME280;24025;48.138;11.428;2023-04-26T05:49:43;95539.13;;;5.86;90.39
38225;BME280;24025;48.138;11.428;2023-04-26T05:52:14;95544.88;;;5.76;90.67
38225;BME280;24025;48.138;11.428;2023-04-26T05:54:46;95547.94;;;5.90;90.79
38225;BME280;24025;48.138;11.428;2023-04-26T05:57:17;95543.56;;;5.94;89.42
38225;BME280;24025;48.138;11.428;2023-04-26T05:59:49;95547.34;;;5.93;89.29
38225;BME280;24025;48.138;11.428;2023-04-26T06:02:21;95550.63;;;6.02;89.17
38225;BME280;24025;48.138;11.428;2023-04-26T06:04:53;95551.84;;;5.92;89.02
38225;BME280;24025;48.138;11.428;2023-04-26T06:07:25;95567.81;;;6.08;88.64
38225;BME280;24025;48.138;11.428;2023-04-26T06:09:57;95554.38;;;6.13;88.58
38225;BME280;24025;48.138;11.428;2023-04-26T06:12:28;95565.63;;;6.22;87.74
38225;BME280;24025;48.138;11.428;2023-04-26T06:15:00;95563.06;;;6.26;87.49
38225;BME280;24025;48.138;11.428;2023-04-26T06:17:31;95564.88;;;6.10;87.06
38225;BME280;24025;48.138;11.428;2023-04-26T06:20:03;95553.06;;;6.19;87.36
38225;BME280;24025;48.138;11.428;2023-04-26T06:22:36;95565.63;;;6.10;87.26
38225;BME280;24025;48.138;11.428;2023-04-26T06:25:08;95559.00;;;6.29;85.64
38225;BME280;24025;48.138;11.428;2023-04-26T06:27:39;95565.72;;;6.14;84.43
38225;BME280;24025;48.138;11.428;2023-04-26T06:30:12;95561.53;;;6.25;84.97
38225;BME280;24025;48.138;11.428;2023-04-26T06:32:43;95557.88;;;6.30;85.68
38225;BME280;24025;48.138;11.428;2023-04-26T06:35:15;95564.72;;;6.31;86.57
38225;BME280;24025;48.138;11.428;2023-04-26T06:37:47;95563.63;;;6.07;86.13
38225;BME280;24025;48.138;11.428;2023-04-26T06:40:18;95562.31;;;6.13;86.17
38225;BME280;24025;48.138;11.428;2023-04-26T06:42:50;95560.66;;;6.21;83.99
38225;BME280;24025;48.138;11.428;2023-04-26T06:45:21;95562.84;;;6.31;81.05
38225;BME280;24025;48.138;11.428;2023-04-26T06:47:53;95564.69;;;6.55;81.17
38225;BME280;24025;48.138;11.428;2023-04-26T06:50:25;95567.00;;;6.44;82.02
38225;BME280;24025;48.138;11.428;2023-04-26T06:52:57;95569.22;;;6.42;79.48
38225;BME280;24025;48.138;11.428;2023-04-26T06:55:28;95567.81;;;6.33;75.61
38225;BME280;24025;48.138;11.428;2023-04-26T06:58:00;95571.19;;;6.58;76.06
38225;BME280;24025;48.138;11.428;2023-04-26T07:00:31;95564.22;;;6.93;75.64
38225;BME280;24025;48.138;11.428;2023-04-26T07:03:03;95575.69;;;6.97;74.30
38225;BME280;24025;48.138;11.428;2023-04-26T07:05:35;95575.44;;;6.74;73.44
38225;BME280;24025;48.138;11.428;2023-04-26T07:08:06;95571.06;;;6.94;74.52
38225;BME280;24025;48.138;11.428;2023-04-26T07:10:39;95571.91;;;7.10;75.09
38225;BME280;24025;48.138;11.428;2023-04-26T07:13:11;95572.25;;;7.09;74.01
38225;BME280;24025;48.138;11.428;2023-04-26T07:15:43;95571.13;;;7.10;73.33
38225;BME280;24025;48.138;11.428;2023-04-26T07:18:14;95566.00;;;7.17;73.47
38225;BME280;24025;48.138;11.428;2023-04-26T07:20:46;95573.28;;;7.20;74.63
38225;BME280;24025;48.138;11.428;2023-04-26T07:23:18;95571.28;;;7.01;72.89
38225;BME280;24025;48.138;11.428;2023-04-26T07:25:50;95569.72;;;7.00;73.21
38225;BME280;24025;48.138;11.428;2023-04-26T07:28:21;95561.00;;;7.28;75.30
38225;BME280;24025;48.138;11.428;2023-04-26T07:30:53;95575.88;;;7.32;73.98
38225;BME280;24025;48.138;11.428;2023-04-26T07:33:25;95575.69;;;7.25;76.11
38225;BME280;24025;48.138;11.428;2023-04-26T07:35:58;95567.75;;;7.25;74.24
38225;BME280;24025;48.138;11.428;2023-04-26T07:38:32;95572.81;;;7.46;72.56
38225;BME280;24025;48.138;11.428;2023-04-26T07:41:04;95566.19;;;7.24;72.01
38225;BME280;24025;48.138;11.428;2023-04-26T07:43:35;95565.09;;;7.41;74.35
38225;BME280;24025;48.138;11.428;2023-04-26T07:46:07;95562.97;;;7.47;73.21
38225;BME280;24025;48.138;11.428;2023-04-26T07:48:38;95563.34;;;7.61;72.40
38225;BME280;24025;48.138;11.428;2023-04-26T07:51:10;95565.31;;;7.64;72.50
38225;BME280;24025;48.138;11.428;2023-04-26T07:53:42;95558.53;;;7.51;72.99
38225;BME280;24025;48.138;11.428;2023-04-26T07:56:14;95570.63;;;7.80;74.27
38225;BME280;24025;48.138;11.428;2023-04-26T07:58:46;95565.47;;;8.03;71.32
38225;BME280;24025;48.138;11.428;2023-04-26T08:01:17;95560.66;;;8.24;70.91
38225;BME280;24025;48.138;11.428;2023-04-26T08:03:49;95564.47;;;8.58;69.75
38225;BME280;24025;48.138;11.428;2023-04-26T08:06:21;95561.59;;;8.32;67.97
38225;BME280;24025;48.138;11.428;2023-04-26T08:08:54;95562.78;;;8.18;68.10
38225;BME280;24025;48.138;11.428;2023-04-26T08:11:25;95566.75;;;8.60;69.39
38225;BME280;24025;48.138;11.428;2023-04-26T08:13:57;95565.03;;;8.87;68.39
38225;BME280;24025;48.138;11.428;2023-04-26T08:16:29;95561.47;;;8.98;66.88
38225;BME280;24025;48.138;11.428;2023-04-26T08:19:00;95564.69;;;8.88;66.03
38225;BME280;24025;48.138;11.428;2023-04-26T08:21:33;95564.63;;;8.85;63.64
38225;BME280;24025;48.138;11.428;2023-04-26T08:24:05;95566.75;;;8.60;63.03
38225;BME280;24025;48.138;11.428;2023-04-26T08:26:37;95561.41;;;8.75;62.33
38225;BME280;24025;48.138;11.428;2023-04-26T08:29:09;95567.16;;;8.42;63.68
38225;BME280;24025;48.138;11.428;2023-04-26T08:31:40;95566.75;;;8.40;67.03
38225;BME280;24025;48.138;11.428;2023-04-26T08:34:12;95563.16;;;8.01;65.15
38225;BME280;24025;48.138;11.428;2023-04-26T08:36:44;95560.06;;;8.15;66.82
38225;BME280;24025;48.138;11.428;2023-04-26T08:39:18;95560.09;;;8.50;64.85
38225;BME280;24025;48.138;11.428;2023-04-26T08:41:55;95562.06;;;8.72;63.38
38225;BME280;24025;48.138;11.428;2023-04-26T08:44:30;95557.31;;;8.82;63.06
38225;BME280;24025;48.138;11.428;2023-04-26T08:47:12;95561.31;;;9.30;62.57
38225;BME280;24025;48.138;11.428;2023-04-26T08:49:45;95559.66;;;9.02;59.65
38225;BME280;24025;48.138;11.428;2023-04-26T08:52:19;95549.59;;;9.34;57.74
38225;BME280;24025;48.138;11.428;2023-04-26T08:54:54;95567.25;;;9.65;59.78
38225;BME280;24025;48.138;11.428;2023-04-26T08:57:30;95562.28;;;9.64;56.94
38225;BME280;24025;48.138;11.428;2023-04-26T09:00:03;95563.72;;;9.81;60.11
38225;BME280;24025;48.138;11.428;2023-04-26T09:02:49;95565.22;;;9.17;58.76
38225;BME280;24025;48.138;11.428;2023-04-26T09:05:22;95566.13;;;9.24;59.32
38225;BME280;24025;48.138;11.428;2023-04-26T09:07:56;95568.47;;;9.49;60.33
38225;BME280;24025;48.138;11.428;2023-04-26T09:10:30;95569.56;;;9.67;60.09
38225;BME280;24025;48.138;11.428;2023-04-26T09:13:02;95571.69;;;8.96;56.72
38225;BME280;24025;48.138;11.428;2023-04-26T09:15:34;95569.59;;;8.86;58.55
38225;BME280;24025;48.138;11.428;2023-04-26T09:18:21;95561.44;;;9.18;59.27
38225;BME280;24025;48.138;11.428;2023-04-26T09:21:05;95560.81;;;9.24;57.67
38225;BME280;24025;48.138;11.428;2023-04-26T09:23:56;95565.44;;;8.89;59.36
38225;BME280;24025;48.138;11.428;2023-04-26T09:26:28;95563.63;;;8.73;58.59
38225;BME280;24025;48.138;11.428;2023-04-26T09:29:13;95557.97;;;8.75;59.38
38225;BME280;24025;48.138;11.428;2023-04-26T09:31:47;95558.09;;;8.63;59.23
38225;BME280;24025;48.138;11.428;2023-04-26T09:34:20;95561.09;;;8.80;59.41
38225;BME280;24025;48.138;11.428;2023-04-26T09:36:53;95556.50;;;8.77;59.26
38225;BME280;24025;48.138;11.428;2023-04-26T09:39:36;95556.69;;;8.88;58.84
38225;BME280;24025;48.138;11.428;2023-04-26T09:42:09;95561.25;;;8.88;57.79
38225;BME280;24025;48.138;11.428;2023-04-26T09:44:41;95561.72;;;8.74;57.92
38225;BME280;24025;48.138;11.428;2023-04-26T09:47:13;95562.28;;;8.83;58.38
38225;BME280;24025;48.138;11.428;2023-04-26T09:49:47;95568.06;;;8.85;58.43
38225;BME280;24025;48.138;11.428;2023-04-26T09:52:20;95567.75;;;8.90;59.61
38225;BME280;24025;48.138;11.428;2023-04-26T09:54:53;95576.59;;;8.75;59.72
38225;BME280;24025;48.138;11.428;2023-04-26T09:57:24;95573.78;;;8.87;60.63
38225;BME280;24025;48.138;11.428;2023-04-26T09:59:56;95575.88;;;9.17;59.47
38225;BME280;24025;48.138;11.428;2023-04-26T10:02:27;95569.78;;;9.16;59.55
38225;BME280;24025;48.138;11.428;2023-04-26T10:05:00;95557.53;;;9.31;58.64
38225;BME280;24025;48.138;11.428;2023-04-26T10:07:33;95557.44;;;9.92;56.99
38225;BME280;24025;48.138;11.428;2023-04-26T10:10:09;95556.78;;;9.99;55.57
38225;BME280;24025;48.138;11.428;2023-04-26T10:12:42;95544.53;;;10.21;55.23
38225;BME280;24025;48.138;11.428;2023-04-26T10:15:14;95544.69;;;10.32;55.57
38225;BME280;24025;48.138;11.428;2023-04-26T10:17:46;95544.41;;;10.14;54.69
38225;BME280;24025;48.138;11.428;2023-04-26T10:20:19;95542.03;;;10.32;55.96
38225;BME280;24025;48.138;11.428;2023-04-26T10:22:55;95530.34;;;10.40;55.30
38225;BME280;24025;48.138;11.428;2023-04-26T10:25:38;95527.56;;;10.06;55.25
38225;BME280;24025;48.138;11.428;2023-04-26T10:28:10;95527.97;;;10.61;54.58
38225;BME280;24025;48.138;11.428;2023-04-26T10:30:58;95532.09;;;10.29;53.82
38225;BME280;24025;48.138;11.428;2023-04-26T10:33:30;95537.13;;;10.34;54.02
38225;BME280;24025;48.138;11.428;2023-04-26T10:38:41;95517.34;;;10.35;55.19
38225;BME280;24025;48.138;11.428;2023-04-26T10:41:35;95511.63;;;10.63;54.79
38225;BME280;24025;48.138;11.428;2023-04-26T10:44:36;95502.97;;;10.73;52.60
38225;BME280;24025;48.138;11.428;2023-04-26T10:50:09;95507.97;;;11.12;50.59
38225;BME280;24025;48.138;11.428;2023-04-26T10:55:38;95505.25;;;11.89;49.84
38225;BME280;24025;48.138;11.428;2023-04-26T10:58:33;95497.56;;;12.39;49.45
38225;BME280;24025;48.138;11.428;2023-04-26T11:01:14;95489.41;;;12.14;47.99
38225;BME280;24025;48.138;11.428;2023-04-26T11:06:50;95487.59;;;12.33;46.65
38225;BME280;24025;48.138;11.428;2023-04-26T11:09:32;95487.28;;;12.48;47.61
38225;BME280;24025;48.138;11.428;2023-04-26T11:12:10;95489.66;;;12.68;46.36
38225;BME280;24025;48.138;11.428;2023-04-26T11:14:44;95480.41;;;12.47;45.69
38225;BME280;24025;48.138;11.428;2023-04-26T11:17:19;95468.44;;;12.24;47.35
38225;BME280;24025;48.138;11.428;2023-04-26T11:19:51;95477.16;;;11.62;48.93
38225;BME280;24025;48.138;11.428;2023-04-26T11:22:22;95483.31;;;11.70;48.53
38225;BME280;24025;48.138;11.428;2023-04-26T11:24:54;95474.19;;;11.26;48.75
38225;BME280;24025;48.138;11.428;2023-04-26T11:27:26;95485.16;;;10.81;49.14
38225;BME280;24025;48.138;11.428;2023-04-26T11:30:02;95482.50;;;10.81;50.06
38225;BME280;24025;48.138;11.428;2023-04-26T11:32:35;95464.97;;;11.20;49.47
38225;BME280;24025;48.138;11.428;2023-04-26T11:35:07;95470.84;;;11.37;49.49
38225;BME280;24025;48.138;11.428;2023-04-26T11:37:39;95468.94;;;11.81;47.93
38225;BME280;24025;48.138;11.428;2023-04-26T11:40:11;95468.16;;;12.39;47.35
38225;BME280;24025;48.138;11.428;2023-04-26T11:42:43;95458.59;;;12.38;47.14
38225;BME280;24025;48.138;11.428;2023-04-26T11:45:15;95466.38;;;12.79;45.31
38225;BME280;24025;48.138;11.428;2023-04-26T11:47:47;95468.38;;;13.03;44.35
38225;BME280;24025;48.138;11.428;2023-04-26T11:50:19;95481.38;;;12.18;46.26
38225;BME280;24025;48.138;11.428;2023-04-26T11:52:58;95483.28;;;12.14;47.19
38225;BME280;24025;48.138;11.428;2023-04-26T11:55:31;95479.47;;;12.18;45.14
38225;BME280;24025;48.138;11.428;2023-04-26T11:58:11;95480.34;;;12.33;45.88
38225;BME280;24025;48.138;11.428;2023-04-26T12:01:00;95479.19;;;11.79;45.84
38225;BME280;24025;48.138;11.428;2023-04-26T12:03:33;95467.91;;;11.97;46.69
38225;BME280;24025;48.138;11.428;2023-04-26T12:06:08;95462.00;;;12.35;45.09
38225;BME280;24025;48.138;11.428;2023-04-26T12:08:40;95470.59;;;12.00;45.87
38225;BME280;24025;48.138;11.428;2023-04-26T12:11:15;95480.50;;;12.65;46.05
38225;BME280;24025;48.138;11.428;2023-04-26T12:13:46;95464.41;;;12.62;45.06
38225;BME280;24025;48.138;11.428;2023-04-26T12:16:18;95471.44;;;13.16;45.19
38225;BME280;24025;48.138;11.428;2023-04-26T12:18:57;95470.78;;;13.66;43.82
38225;BME280;24025;48.138;11.428;2023-04-26T12:21:28;95470.75;;;13.69;43.03
38225;BME280;24025;48.138;11.428;2023-04-26T12:24:01;95473.72;;;13.03;44.56
38225;BME280;24025;48.138;11.428;2023-04-26T12:26:43;95472.56;;;12.90;45.97
38225;BME280;24025;48.138;11.428;2023-04-26T12:29:15;95477.28;;;12.35;47.67
38225;BME280;24025;48.138;11.428;2023-04-26T12:31:46;95477.25;;;11.73;48.01
38225;BME280;24025;48.138;11.428;2023-04-26T12:34:18;95489.22;;;11.86;49.05
38225;BME280;24025;48.138;11.428;2023-04-26T12:36:50;95477.06;;;11.96;49.29
38225;BME280;24025;48.138;11.428;2023-04-26T12:39:22;95482.03;;;11.94;48.58
38225;BME280;24025;48.138;11.428;2023-04-26T12:41:54;95469.56;;;12.19;47.74
38225;BME280;24025;48.138;11.428;2023-04-26T12:44:25;95464.91;;;12.96;47.54
38225;BME280;24025;48.138;11.428;2023-04-26T12:46:57;95455.47;;;13.63;44.51
38225;BME280;24025;48.138;11.428;2023-04-26T12:49:29;95456.16;;;14.27;43.61
38225;BME280;24025;48.138;11.428;2023-04-26T12:52:01;95470.41;;;13.81;44.09
38225;BME280;24025;48.138;11.428;2023-04-26T12:54:34;95458.50;;;14.07;42.85
38225;BME280;24025;48.138;11.428;2023-04-26T12:57:05;95456.63;;;13.54;43.28
38225;BME280;24025;48.138;11.428;2023-04-26T12:59:37;95455.84;;;13.43;43.09
38225;BME280;24025;48.138;11.428;2023-04-26T13:02:08;95453.16;;;13.47;42.91
38225;BME280;24025;48.138;11.428;2023-04-26T13:04:40;95442.06;;;13.38;42.27
38225;BME280;24025;48.138;11.428;2023-04-26T13:07:12;95446.28;;;13.88;42.34
38225;BME280;24025;48.138;11.428;2023-04-26T13:09:44;95443.63;;;13.53;42.12
38225;BME280;24025;48.138;11.428;2023-04-26T13:12:16;95445.50;;;13.74;41.48
38225;BME280;24025;48.138;11.428;2023-04-26T13:14:47;95441.69;;;13.68;41.66
38225;BME280;24025;48.138;11.428;2023-04-26T13:17:19;95440.53;;;13.76;42.23
38225;BME280;24025;48.138;11.428;2023-04-26T13:19:52;95445.50;;;13.24;41.94
38225;BME280;24025;48.138;11.428;2023-04-26T13:22:24;95440.91;;;13.31;42.26
38225;BME280;24025;48.138;11.428;2023-04-26T13:24:55;95431.38;;;13.45;42.34
38225;BME280;24025;48.138;11.428;2023-04-26T13:27:27;95437.09;;;13.50;42.88
38225;BME280;24025;48.138;11.428;2023-04-26T13:30:02;95435.88;;;13.01;41.88
38225;BME280;24025;48.138;11.428;2023-04-26T13:32:34;95437.84;;;13.58;42.25
38225;BME280;24025;48.138;11.428;2023-04-26T13:35:05;95437.06;;;13.89;41.56
38225;BME280;24025;48.138;11.428;2023-04-26T13:37:37;95437.09;;;13.68;41.79
38225;BME280;24025;48.138;11.428;2023-04-26T13:40:09;95434.03;;;13.73;42.81